createdAt,value
2023-10-08T00:00:05.332Z,38.33
2023-10-08T00:02:32.205Z,38.58
2023-10-08T00:04:59.007Z,38.70
2023-10-08T00:07:25.848Z,38.58
2023-10-08T00:09:52.846Z,38.07
2023-10-08T00:12:19.906Z,38.82
2023-10-08T00:14:48.428Z,38.53
2023-10-08T00:17:15.364Z,38.61
2023-10-08T00:19:42.203Z,38.67
2023-10-08T00:22:08.924Z,38.60
2023-10-08T00:24:35.647Z,38.88
2023-10-08T00:27:02.362Z,38.68
2023-10-08T00:29:29.127Z,38.80
2023-10-08T00:31:57.235Z,38.28
2023-10-08T00:34:24.381Z,38.50
2023-10-08T00:36:51.598Z,38.22
2023-10-08T00:39:18.844Z,37.83
2023-10-08T00:41:46.710Z,37.83
2023-10-08T00:44:14.710Z,37.68
2023-10-08T00:46:41.700Z,37.37
2023-10-08T00:49:10.028Z,37.36
2023-10-08T00:51:36.847Z,37.35
2023-10-08T00:54:04.748Z,37.35
2023-10-08T00:56:31.548Z,37.04
2023-10-08T00:58:58.256Z,36.89
2023-10-08T01:01:25.035Z,36.60
2023-10-08T01:03:51.799Z,36.68
2023-10-08T01:06:20.846Z,36.83
2023-10-08T01:08:47.983Z,36.62
2023-10-08T01:11:18.461Z,36.61
2023-10-08T01:13:45.279Z,36.80
2023-10-08T01:16:12.066Z,36.89
2023-10-08T01:18:38.947Z,36.64
2023-10-08T01:21:05.696Z,37.00
2023-10-08T01:23:33.909Z,36.73
2023-10-08T01:26:00.643Z,37.05
2023-10-08T01:28:27.407Z,36.59
2023-10-08T01:30:54.414Z,36.50
2023-10-08T01:33:22.031Z,36.27
2023-10-08T01:35:48.904Z,36.18
2023-10-08T01:38:15.784Z,36.33
2023-10-08T01:40:44.321Z,36.07
2023-10-08T01:43:11.121Z,35.95
2023-10-08T01:45:38.327Z,35.80
2023-10-08T01:48:05.717Z,35.88
2023-10-08T01:50:32.567Z,35.88
2023-10-08T01:52:59.407Z,35.59
2023-10-08T01:55:26.203Z,35.51
2023-10-08T01:57:54.304Z,35.99
2023-10-08T02:00:21.278Z,35.62
2023-10-08T02:02:48.597Z,35.97
2023-10-08T02:05:15.855Z,35.79
2023-10-08T02:07:42.814Z,35.74
2023-10-08T02:10:09.904Z,36.03
2023-10-08T02:12:36.640Z,36.16
2023-10-08T02:15:06.333Z,36.04
2023-10-08T02:17:33.105Z,36.00
2023-10-08T02:19:59.946Z,36.21
2023-10-08T02:22:26.667Z,36.18
2023-10-08T02:24:54.032Z,36.32
2023-10-08T02:27:20.734Z,36.13
2023-10-08T02:29:47.519Z,36.05
2023-10-08T02:32:15.696Z,36.60
2023-10-08T02:34:42.442Z,36.01
2023-10-08T02:37:09.642Z,36.10
2023-10-08T02:39:36.452Z,36.11
2023-10-08T02:42:03.191Z,35.82
2023-10-08T02:44:29.998Z,36.02
2023-10-08T02:46:56.771Z,36.08
2023-10-08T02:49:24.921Z,35.81
2023-10-08T02:51:54.008Z,35.92
2023-10-08T02:54:22.190Z,35.47
2023-10-08T02:56:50.563Z,35.87
2023-10-08T02:59:17.317Z,35.70
2023-10-08T03:01:44.211Z,35.53
2023-10-08T03:04:11.405Z,35.70
2023-10-08T03:06:39.549Z,35.53
2023-10-08T03:09:06.258Z,36.04
2023-10-08T03:11:32.977Z,35.74
2023-10-08T03:13:59.754Z,35.48
2023-10-08T03:16:26.529Z,35.23
2023-10-08T03:18:53.234Z,35.80
2023-10-08T03:21:21.021Z,36.10
2023-10-08T03:23:50.923Z,36.00
2023-10-08T03:26:18.207Z,35.50
2023-10-08T03:28:45.071Z,35.68
2023-10-08T03:31:11.855Z,35.59
2023-10-08T03:33:38.882Z,35.33
2023-10-08T03:36:06.123Z,35.47
2023-10-08T03:38:32.934Z,35.26
2023-10-08T03:41:01.119Z,35.61
2023-10-08T03:43:27.828Z,35.54
2023-10-08T03:45:54.798Z,35.58
2023-10-08T03:48:21.806Z,35.75
2023-10-08T03:50:48.927Z,35.47
2023-10-08T03:53:15.710Z,35.76
2023-10-08T03:55:42.425Z,36.09
2023-10-08T03:58:10.766Z,36.18
2023-10-08T04:00:37.443Z,36.25
2023-10-08T04:03:04.928Z,35.37
2023-10-08T04:05:31.749Z,35.55
2023-10-08T04:07:58.536Z,36.38
2023-10-08T04:10:25.305Z,36.14
2023-10-08T04:12:52.243Z,36.09
2023-10-08T04:15:21.384Z,36.18
2023-10-08T04:17:48.212Z,35.92
2023-10-08T04:20:16.035Z,36.00
2023-10-08T04:22:42.795Z,36.13
2023-10-08T04:25:09.623Z,36.03
2023-10-08T04:27:36.354Z,36.16
2023-10-08T04:30:03.351Z,36.14
2023-10-08T04:32:31.480Z,35.71
2023-10-08T04:34:58.273Z,35.82
2023-10-08T04:37:25.007Z,36.34
2023-10-08T04:39:51.737Z,36.17
2023-10-08T04:42:18.448Z,36.33
2023-10-08T04:44:45.452Z,36.41
2023-10-08T04:47:12.342Z,36.18
2023-10-08T04:49:40.431Z,35.94
2023-10-08T04:52:08.049Z,36.27
2023-10-08T04:54:34.831Z,36.22
2023-10-08T04:57:03.419Z,36.39
2023-10-08T04:59:30.763Z,36.21
2023-10-08T05:01:57.636Z,36.15
2023-10-08T05:04:25.648Z,35.86
2023-10-08T05:06:54.451Z,36.51
2023-10-08T05:09:21.232Z,36.35
2023-10-08T05:11:49.308Z,36.55
2023-10-08T05:14:16.707Z,36.47
2023-10-08T05:16:43.693Z,36.36
2023-10-08T05:19:10.736Z,36.11
2023-10-08T05:21:37.703Z,35.73
2023-10-08T05:24:06.385Z,35.46
2023-10-08T05:26:33.142Z,35.58
2023-10-08T05:29:00.068Z,35.42
2023-10-08T05:31:26.852Z,35.56
2023-10-08T05:33:53.591Z,35.32
2023-10-08T05:36:22.648Z,34.83
2023-10-08T05:38:49.844Z,35.35
2023-10-08T05:41:18.331Z,36.15
2023-10-08T05:43:45.410Z,36.27
2023-10-08T05:46:13.200Z,36.21
2023-10-08T05:48:39.945Z,36.95
2023-10-08T05:51:08.027Z,37.84
2023-10-08T05:53:34.780Z,37.89
2023-10-08T05:56:05.810Z,38.12
2023-10-08T05:58:33.931Z,37.88
2023-10-08T06:01:00.712Z,37.87
2023-10-08T06:03:27.753Z,37.77
2023-10-08T06:05:54.659Z,38.51
2023-10-08T06:08:21.626Z,37.56
2023-10-08T06:10:48.759Z,37.95
2023-10-08T06:13:15.700Z,38.38
2023-10-08T06:15:45.080Z,39.09
2023-10-08T06:18:12.040Z,39.07
2023-10-08T06:20:38.928Z,38.95
2023-10-08T06:23:05.878Z,39.25
2023-10-08T06:25:32.633Z,39.39
2023-10-08T06:28:00.232Z,39.60
2023-10-08T06:30:27.312Z,39.39
2023-10-08T06:32:56.162Z,39.89
2023-10-08T06:35:23.286Z,39.94
2023-10-08T06:37:50.002Z,39.67
2023-10-08T06:40:17.418Z,39.73
2023-10-08T06:42:44.105Z,40.59
2023-10-08T06:45:10.995Z,40.62
2023-10-08T06:47:37.790Z,40.80
2023-10-08T06:50:06.998Z,40.27
2023-10-08T06:52:33.737Z,40.25
2023-10-08T06:55:00.658Z,40.68
2023-10-08T06:57:27.770Z,40.55
2023-10-08T06:59:54.985Z,40.49
2023-10-08T07:02:22.216Z,40.74
2023-10-08T07:04:50.067Z,40.23
2023-10-08T07:07:18.409Z,40.16
2023-10-08T07:09:45.316Z,40.50
2023-10-08T07:12:12.653Z,40.22
2023-10-08T07:14:39.507Z,40.57
2023-10-08T07:17:06.581Z,40.29
2023-10-08T07:19:33.393Z,40.62
2023-10-08T07:22:00.789Z,40.43
2023-10-08T07:24:29.050Z,40.84
2023-10-08T07:26:55.934Z,40.52
2023-10-08T07:29:22.936Z,40.39
2023-10-08T07:31:49.807Z,40.25
2023-10-08T07:34:17.150Z,40.38
2023-10-08T07:36:45.232Z,40.67
2023-10-08T07:39:12.054Z,41.11
2023-10-08T07:41:40.218Z,40.64
2023-10-08T07:44:07.106Z,41.03
2023-10-08T07:46:33.945Z,40.29
2023-10-08T07:49:00.837Z,40.98
2023-10-08T07:51:28.033Z,41.04
2023-10-08T07:53:55.115Z,40.93
2023-10-08T07:56:21.976Z,41.13
2023-10-08T07:58:50.153Z,40.53
2023-10-08T08:01:16.895Z,41.21
2023-10-08T08:03:43.764Z,41.02
2023-10-08T08:06:10.975Z,41.16
2023-10-08T08:08:39.049Z,41.40
2023-10-08T08:11:06.439Z,41.18
2023-10-08T08:13:33.587Z,41.64
2023-10-08T08:16:02.110Z,41.89
2023-10-08T08:18:29.125Z,41.40
2023-10-08T08:20:55.958Z,41.74
2023-10-08T08:23:22.872Z,41.56
2023-10-08T08:25:50.417Z,41.54
2023-10-08T08:28:17.321Z,42.00
2023-10-08T08:30:44.356Z,41.97
2023-10-08T08:33:12.627Z,42.04
2023-10-08T08:35:39.864Z,42.61
2023-10-08T08:38:06.689Z,42.15
2023-10-08T08:40:35.472Z,42.46
2023-10-08T08:43:02.846Z,42.41
2023-10-08T08:45:30.120Z,43.07
2023-10-08T08:47:57.345Z,42.99
2023-10-08T08:50:26.742Z,43.55
2023-10-08T08:52:53.883Z,42.65
2023-10-08T08:55:20.724Z,43.00
2023-10-08T08:57:48.930Z,42.10
2023-10-08T09:00:16.834Z,42.24
2023-10-08T09:02:44.749Z,42.77
2023-10-08T09:05:12.453Z,42.26
2023-10-08T09:07:53.237Z,41.77
2023-10-08T09:10:19.974Z,41.63
2023-10-08T09:12:46.735Z,41.71
2023-10-08T09:15:14.093Z,41.87
2023-10-08T09:17:41.088Z,41.83
2023-10-08T09:20:08.894Z,42.09
2023-10-08T09:22:35.639Z,41.87
2023-10-08T09:25:03.906Z,41.97
2023-10-08T09:27:30.678Z,42.65
2023-10-08T09:29:57.499Z,41.85
2023-10-08T09:32:24.727Z,41.95
2023-10-08T09:34:52.574Z,41.75
2023-10-08T09:37:19.684Z,41.54
2023-10-08T09:39:46.935Z,41.51
2023-10-08T09:42:15.255Z,41.80
2023-10-08T09:44:42.093Z,42.79
2023-10-08T09:47:10.100Z,42.46
2023-10-08T09:49:40.356Z,42.61
2023-10-08T09:52:08.344Z,41.56
2023-10-08T09:54:39.016Z,42.09
2023-10-08T09:57:05.929Z,42.36
2023-10-08T09:59:35.109Z,42.71
2023-10-08T10:02:02.497Z,42.72
2023-10-08T10:04:31.999Z,43.06
2023-10-08T10:06:59.011Z,42.55
2023-10-08T10:09:26.915Z,43.16
2023-10-08T10:11:55.268Z,43.66
2023-10-08T10:14:23.314Z,42.72
2023-10-08T10:17:09.712Z,43.61
2023-10-08T10:19:37.386Z,43.56
2023-10-08T10:22:04.135Z,43.21
2023-10-08T10:24:34.060Z,43.17
2023-10-08T10:27:11.530Z,43.68
2023-10-08T10:29:42.489Z,44.06
2023-10-08T10:32:11.842Z,44.41
2023-10-08T10:34:40.433Z,44.81
2023-10-08T10:37:07.151Z,43.83
2023-10-08T10:39:34.403Z,44.40
2023-10-08T10:42:02.762Z,45.37
2023-10-08T10:44:32.499Z,44.29
2023-10-08T10:47:00.711Z,45.01
2023-10-08T10:49:30.589Z,45.03
2023-10-08T10:51:58.645Z,45.18
2023-10-08T10:54:25.867Z,45.22
2023-10-08T10:56:53.311Z,44.23
2023-10-08T10:59:20.389Z,44.96
2023-10-08T11:01:48.209Z,44.79
2023-10-08T11:04:15.331Z,44.86
2023-10-08T11:06:44.149Z,45.28
2023-10-08T11:09:10.904Z,45.70
2023-10-08T11:11:37.990Z,45.29
2023-10-08T11:14:05.138Z,45.78
2023-10-08T11:16:33.432Z,45.61
2023-10-08T11:19:02.668Z,45.50
2023-10-08T11:21:30.713Z,45.98
2023-10-08T11:23:58.870Z,45.32
2023-10-08T11:26:26.838Z,45.66
2023-10-08T11:28:53.541Z,45.06
2023-10-08T11:31:20.375Z,45.40
2023-10-08T11:33:47.879Z,45.55
2023-10-08T11:36:18.713Z,45.61
2023-10-08T11:38:45.960Z,45.45
2023-10-08T11:41:15.181Z,45.70
2023-10-08T11:43:42.296Z,45.69
2023-10-08T11:46:10.345Z,46.00
2023-10-08T11:48:37.196Z,45.54
2023-10-08T11:51:04.234Z,45.98
2023-10-08T11:53:31.024Z,46.13
2023-10-08T11:55:58.010Z,45.91
2023-10-08T11:58:26.279Z,45.87
2023-10-08T12:00:53.049Z,45.70
2023-10-08T12:03:21.723Z,45.68
2023-10-08T12:05:50.092Z,46.12
2023-10-08T12:08:18.487Z,45.61
2023-10-08T12:10:45.493Z,45.69
2023-10-08T12:13:12.315Z,45.76
2023-10-08T12:15:40.625Z,45.57
2023-10-08T12:18:07.677Z,45.57
2023-10-08T12:20:35.255Z,45.71
2023-10-08T12:23:02.014Z,45.61
2023-10-08T12:25:28.734Z,45.67
2023-10-08T12:27:55.508Z,45.77
2023-10-08T12:30:22.375Z,45.05
2023-10-08T12:32:50.634Z,45.35
2023-10-08T12:35:17.457Z,45.18
2023-10-08T12:37:44.203Z,45.44
2023-10-08T12:40:11.481Z,45.54
2023-10-08T12:42:38.268Z,46.04
2023-10-08T12:45:06.284Z,45.91
2023-10-08T12:47:33.146Z,46.08
2023-10-08T12:50:01.319Z,46.13
2023-10-08T12:52:28.217Z,46.12
2023-10-08T12:54:54.959Z,46.71
2023-10-08T12:57:21.696Z,46.17
2023-10-08T12:59:48.478Z,46.09
2023-10-08T13:02:15.229Z,46.68
2023-10-08T13:04:42.054Z,46.67
2023-10-08T13:07:10.200Z,46.45
2023-10-08T13:09:36.936Z,45.98
2023-10-08T13:12:04.089Z,45.37
2023-10-08T13:14:31.003Z,45.62
2023-10-08T13:16:57.849Z,45.35
2023-10-08T13:19:25.654Z,45.27
2023-10-08T13:21:52.403Z,45.14
2023-10-08T13:24:22.560Z,45.21
2023-10-08T13:26:51.301Z,45.03
2023-10-08T13:29:18.109Z,45.69
2023-10-08T13:31:44.947Z,45.83
2023-10-08T13:34:12.030Z,44.82
2023-10-08T13:36:39.259Z,44.77
2023-10-08T13:39:06.367Z,45.09
2023-10-08T13:41:34.498Z,44.87
2023-10-08T13:44:01.295Z,45.28
2023-10-08T13:46:28.268Z,45.74
2023-10-08T13:48:55.041Z,45.28
2023-10-08T13:51:23.011Z,45.86
2023-10-08T13:53:50.446Z,46.85
2023-10-08T13:56:17.227Z,45.49
2023-10-08T13:58:45.341Z,45.51
2023-10-08T14:01:12.034Z,45.80
2023-10-08T14:03:38.811Z,45.49
2023-10-08T14:06:06.170Z,46.12
2023-10-08T14:08:32.975Z,46.13
2023-10-08T14:10:59.736Z,46.54
2023-10-08T14:13:26.567Z,46.50
2023-10-08T14:15:54.727Z,45.91
2023-10-08T14:18:21.587Z,46.01
2023-10-08T14:20:48.390Z,45.89
2023-10-08T14:23:15.105Z,45.98
2023-10-08T14:25:41.868Z,45.95
2023-10-08T14:28:08.694Z,46.39
2023-10-08T14:30:35.418Z,46.54
2023-10-08T14:33:03.804Z,46.01
2023-10-08T14:35:30.561Z,46.19
2023-10-08T14:37:57.343Z,45.80
2023-10-08T14:40:24.031Z,46.73
2023-10-08T14:42:50.956Z,47.36
2023-10-08T14:45:17.767Z,46.61
2023-10-08T14:47:44.606Z,47.20
2023-10-08T14:50:12.792Z,46.58
2023-10-08T14:52:39.613Z,47.02
2023-10-08T14:55:06.905Z,46.61
2023-10-08T14:57:33.665Z,47.20
2023-10-08T15:00:00.505Z,47.27
2023-10-08T15:02:27.299Z,47.21
2023-10-08T15:04:55.466Z,47.18
2023-10-08T15:07:23.550Z,47.20
2023-10-08T15:09:50.325Z,47.21
2023-10-08T15:12:17.103Z,47.35
2023-10-08T15:14:44.055Z,47.74
2023-10-08T15:17:10.780Z,47.46
2023-10-08T15:19:37.582Z,47.49
2023-10-08T15:22:04.313Z,47.74
2023-10-08T15:24:32.551Z,48.12
2023-10-08T15:26:59.409Z,47.97
2023-10-08T15:29:26.160Z,48.66
2023-10-08T15:31:53.149Z,48.49
2023-10-08T15:34:32.804Z,49.01
2023-10-08T15:37:04.024Z,49.02
2023-10-08T15:39:32.136Z,49.90
2023-10-08T15:41:58.897Z,50.23
2023-10-08T15:44:25.658Z,49.95
2023-10-08T15:46:52.369Z,49.92
2023-10-08T15:49:19.270Z,50.32
2023-10-08T15:51:47.060Z,50.57
2023-10-08T15:54:13.925Z,50.09
2023-10-08T15:56:42.109Z,50.06
2023-10-08T15:59:10.448Z,49.78
2023-10-08T16:01:37.204Z,50.08
2023-10-08T16:04:04.444Z,50.25
2023-10-08T16:06:31.291Z,50.64
2023-10-08T16:08:58.017Z,51.55
2023-10-08T16:11:24.809Z,52.66
2023-10-08T16:13:52.967Z,53.26
2023-10-08T16:16:19.713Z,53.66
2023-10-08T16:18:46.635Z,53.75
2023-10-08T16:21:13.490Z,53.86
2023-10-08T16:23:40.263Z,53.97
2023-10-08T16:26:07.089Z,54.54
2023-10-08T16:28:34.106Z,54.01
2023-10-08T16:31:02.248Z,55.01
2023-10-08T16:33:29.036Z,54.21
2023-10-08T16:35:55.858Z,53.97
2023-10-08T16:38:22.629Z,55.01
2023-10-08T16:40:49.388Z,54.70
2023-10-08T16:43:16.109Z,54.91
2023-10-08T16:45:43.294Z,54.46
2023-10-08T16:48:11.538Z,55.52
2023-10-08T16:50:38.631Z,55.45
2023-10-08T16:53:05.493Z,55.61
2023-10-08T16:55:32.360Z,56.80
2023-10-08T16:57:59.089Z,56.72
2023-10-08T17:00:25.777Z,57.05
2023-10-08T17:02:52.632Z,57.01
2023-10-08T17:05:20.812Z,57.30
2023-10-08T17:07:47.590Z,57.14
2023-10-08T17:10:14.501Z,56.89
2023-10-08T17:12:41.398Z,57.25
2023-10-08T17:15:08.793Z,57.71
2023-10-08T17:17:35.544Z,58.02
2023-10-08T17:20:02.430Z,58.35
2023-10-08T17:22:31.187Z,58.39
2023-10-08T17:24:58.098Z,58.88
2023-10-08T17:27:24.922Z,59.04
2023-10-08T17:29:51.675Z,58.89
2023-10-08T17:32:18.518Z,59.07
2023-10-08T17:34:45.352Z,59.17
2023-10-08T17:37:12.033Z,58.88
2023-10-08T17:39:40.234Z,58.81
2023-10-08T17:42:06.985Z,58.90
2023-10-08T17:44:34.351Z,58.83
2023-10-08T17:47:01.060Z,58.91
2023-10-08T17:49:27.813Z,58.85
2023-10-08T17:51:54.601Z,58.77
2023-10-08T17:54:21.354Z,59.14
2023-10-08T17:56:49.484Z,59.34
2023-10-08T17:59:16.258Z,59.72
2023-10-08T18:01:44.180Z,59.94
2023-10-08T18:04:11.074Z,59.93
2023-10-08T18:06:39.715Z,59.87
2023-10-08T18:09:06.491Z,59.42
2023-10-08T18:11:33.253Z,60.17
2023-10-08T18:14:01.380Z,60.39
2023-10-08T18:16:30.145Z,60.08
2023-10-08T18:18:57.060Z,59.85
2023-10-08T18:21:23.973Z,59.63
2023-10-08T18:23:50.803Z,59.41
2023-10-08T18:26:17.547Z,59.93
2023-10-08T18:28:44.291Z,60.30
2023-10-08T18:31:12.435Z,59.93
2023-10-08T18:33:40.469Z,60.27
2023-10-08T18:36:08.243Z,60.24
2023-10-08T18:38:35.042Z,60.08
2023-10-08T18:41:01.778Z,60.04
2023-10-08T18:43:28.508Z,60.07
2023-10-08T18:45:55.229Z,59.88
2023-10-08T18:48:23.670Z,59.79
2023-10-08T18:50:50.543Z,59.90
2023-10-08T18:53:17.344Z,60.96
2023-10-08T18:58:17.315Z,60.77
2023-10-08T19:00:44.051Z,60.52
2023-10-08T19:03:10.885Z,60.87
2023-10-08T19:05:39.050Z,61.16
2023-10-08T19:08:06.061Z,60.35
2023-10-08T19:10:32.844Z,60.18
2023-10-08T19:12:59.643Z,60.45
2023-10-08T19:15:26.374Z,60.33
2023-10-08T19:17:53.191Z,60.82
2023-10-08T19:20:19.994Z,60.60
2023-10-08T19:22:48.171Z,60.79
2023-10-08T19:25:17.935Z,60.46
2023-10-08T19:27:45.495Z,60.19
2023-10-08T19:30:13.160Z,59.72
2023-10-08T19:32:39.981Z,60.78
2023-10-08T19:35:07.383Z,61.27
2023-10-08T19:37:34.139Z,61.55
2023-10-08T19:40:02.259Z,61.55
2023-10-08T19:42:28.960Z,61.31
2023-10-08T19:44:55.797Z,61.80
2023-10-08T19:47:22.621Z,61.60
2023-10-08T19:49:49.408Z,61.56
2023-10-08T19:52:16.133Z,61.67
2023-10-08T19:54:42.862Z,61.86
2023-10-08T19:57:11.065Z,61.99
2023-10-08T19:59:37.830Z,62.28
2023-10-08T20:02:04.526Z,61.81
2023-10-08T20:04:31.510Z,62.41
2023-10-08T20:06:58.278Z,62.31
2023-10-08T20:09:25.073Z,62.25
2023-10-08T20:11:52.094Z,62.34
2023-10-08T20:14:20.361Z,62.01
2023-10-08T20:16:47.239Z,62.60
2023-10-08T20:19:14.268Z,62.52
2023-10-08T20:21:41.283Z,62.05
2023-10-08T20:24:08.368Z,62.80
2023-10-08T20:26:35.241Z,63.01
2023-10-08T20:29:02.037Z,63.35
2023-10-08T20:31:30.297Z,63.56
2023-10-08T20:33:57.204Z,63.42
2023-10-08T20:36:26.479Z,63.72
2023-10-08T20:38:53.358Z,64.02
2023-10-08T20:41:20.665Z,64.05
2023-10-08T20:43:47.737Z,64.69
2023-10-08T20:46:18.160Z,64.88
2023-10-08T20:48:46.921Z,64.89
2023-10-08T20:51:14.012Z,64.92
2023-10-08T20:53:40.898Z,64.30
2023-10-08T20:56:07.956Z,64.69
2023-10-08T20:58:34.823Z,64.86
2023-10-08T21:01:01.603Z,64.91
2023-10-08T21:03:28.740Z,65.61
2023-10-08T21:05:59.955Z,65.89
2023-10-08T21:08:26.790Z,66.08
2023-10-08T21:13:23.308Z,66.50
2023-10-08T21:15:50.087Z,66.32
2023-10-08T21:18:16.897Z,66.88
2023-10-08T21:20:48.274Z,66.90
2023-10-08T21:23:16.521Z,67.29
2023-10-08T21:25:43.488Z,67.24
2023-10-08T21:28:10.536Z,67.39
2023-10-08T21:30:37.411Z,67.25
2023-10-08T21:33:04.563Z,67.50
2023-10-08T21:35:31.333Z,67.68
2023-10-08T21:37:58.024Z,67.57
2023-10-08T21:40:26.382Z,67.89
2023-10-08T21:42:53.290Z,67.72
2023-10-08T21:45:20.610Z,68.40
2023-10-08T21:51:06.331Z,68.19
2023-10-08T21:53:33.101Z,68.13
2023-10-08T21:56:07.367Z,67.70
2023-10-08T21:58:34.187Z,68.31
2023-10-08T22:01:01.127Z,67.91
2023-10-08T22:03:28.017Z,67.91
2023-10-08T22:05:54.954Z,67.66
2023-10-08T22:08:21.659Z,68.30
2023-10-08T22:10:48.387Z,68.39
2023-10-08T22:13:16.459Z,67.96
2023-10-08T22:15:43.300Z,68.30
2023-10-08T22:18:10.124Z,68.44
2023-10-08T22:20:36.961Z,68.60
2023-10-08T22:23:04.088Z,69.03
2023-10-08T22:25:30.974Z,68.27
2023-10-08T22:27:57.818Z,69.00
2023-10-08T22:30:26.123Z,69.43
2023-10-08T22:32:52.899Z,68.96
2023-10-08T22:35:19.654Z,68.68
2023-10-08T22:37:46.387Z,68.50
2023-10-08T22:40:13.250Z,68.81
2023-10-08T22:42:40.005Z,69.29
2023-10-08T22:45:07.604Z,68.73
2023-10-08T22:47:35.736Z,69.14
2023-10-08T22:50:02.478Z,68.79
2023-10-08T22:52:29.193Z,68.58
2023-10-08T22:54:56.065Z,69.24
2023-10-08T22:57:22.785Z,69.12
2023-10-08T22:59:49.563Z,68.84
2023-10-08T23:02:16.330Z,69.52
2023-10-08T23:04:44.479Z,69.84
2023-10-08T23:07:11.194Z,69.60
2023-10-08T23:09:38.247Z,69.64
2023-10-08T23:12:07.364Z,70.07
2023-10-08T23:14:34.362Z,70.12
2023-10-08T23:17:01.078Z,69.94
2023-10-08T23:19:27.935Z,69.96
2023-10-08T23:21:56.150Z,70.19
2023-10-08T23:24:22.855Z,70.14
2023-10-08T23:26:49.698Z,69.64
2023-10-08T23:29:16.410Z,69.82
2023-10-08T23:31:43.181Z,69.77
2023-10-08T23:34:09.967Z,69.98
2023-10-08T23:36:37.091Z,69.46
2023-10-08T23:39:05.594Z,69.51
2023-10-08T23:41:32.387Z,69.46
2023-10-08T23:43:59.082Z,69.34
2023-10-08T23:46:26.755Z,69.18
2023-10-08T23:48:53.550Z,68.94
2023-10-08T23:51:21.371Z,69.48
2023-10-08T23:53:48.102Z,69.78
2023-10-08T23:56:16.195Z,69.88
2023-10-08T23:58:42.949Z,69.98
